ADDS TAF Board (Experimental) INFO

IDs: Format: Expanded Condensed

Updated at: 1423 UTC 21 Dec 2014

KMIA - Miami Intl, FL, US

Issued at 1132 UTC 21 Dec 2014
Time1353Z21/15Z21/16Z21/17Z21/18Z21/19Z21/20Z21/21Z21/22Z21/23Z22/00Z22/01Z22/02Z22/03Z
TypeOBSPRVLPRVLPRVLPRVLPRVLPRVLPRVLPRVLPRVLPRVLPRVLPRVLPRVL
VIS10>6>6>6>6>6>6>6>6>6>6>6>6>6
CIG250------------------250250250250
CoverBKNSCTSCTSCTSCTSCTSCTSCTSCTSCTBKNBKNBKNBKN
FltCat--VFRVFRVFRVFRVFRVFRVFRVFRVFRVFRVFRVFRVFR
WX----------------------------
WDir140130130130130130130130130130130130130130
WSpd38888888884444
WGst----------------------------
R08/26
XWnd-2-5-5-5-5-5-5-5-5-5-3-3-3-3
HWnd26666666663333
R09/27
XWnd-2-5-5-5-5-5-5-5-5-5-3-3-3-3
HWnd26666666663333
R12/30
XWnd-1-2-2-2-2-2-2-2-2-2-1-1-1-1
HWnd38888888884444
Raw TAF
KMIA 211132Z 2112/2212 00000KT P6SM SCT027 SCT250
  FM211400 13008KT P6SM SCT035 SCT250
  FM220000 13004KT P6SM FEW025 BKN250


Raw METAR
KMIA 211353Z 14003KT 10SM FEW036 SCT120 BKN250 23/19 A3010 RMK AO2 SLP194 T02280189

TAF Board Legend

Hazard VFR MVFR IFR LIFR
Visibility (sm) >5 3≤X≤5 1≤X<3 <1
Ceiling (100 ft) >30 10≤X≤30 5≤X<10 <5
Wind Speed (kt) <10 10≤X<20 20≤X<30 ≥30
Wind Gust (kt) <15 15≤X<25 25≤X<35 ≥35
Weather No Wx Reported VCTS,-TS,-FZRA TS,FZRA +TS,+FZRA


Page loaded:  14:23 UTC  |   06:23 AM Pacific  |   07:23 AM Mountain  |   08:23 AM Central  |   09:23 AM Eastern

 

ADVISORIES

FORECASTS

FORECASTS

OBSERVATIONS

USER TOOLS

ABOUT US